CheckWX is a tool to help pilots better visualize weather data.  It is not intended as a substitute for an official pre-flight weather briefing.

19:10:09 UTC

CYRT METAR
Rankin Inlet Airport
Rankin Inlet, Canada
Current

1 hour ago

CYRT 191800Z 32009KT 12SM IC FEW250 M35/M40 A2992 RMK CI1 SLP140
Observed
Feb-19 @ 18:00 UTC
Wind
  • 320° at 9 KTS
Visibility
12 SM
Flight Rules
VFR
Conditions
Ice crystals
Cloud Levels
  • Few at 25,000' AGL
Temperature
-35°C / -31°F
Dewpoint
-40°C / -40°F
Humidity
60%
Altimeter
29.92" Hg
Pressure
1014 hPa
Previous

2 hours ago

CYRT 191700Z 30007KT 240V320 12SM IC FEW250 M36/M40 A2992 RMK CI1 SLP140
Observed
Feb-19 @ 17:00 UTC
Wind
  • 300° at 7 KTS
Visibility
12 SM
Flight Rules
VFR
Conditions
Ice crystals
Cloud Levels
  • Few at 25,000' AGL
Temperature
-36°C / -33°F
Dewpoint
-40°C / -40°F
Humidity
66%
Altimeter
29.92" Hg
Pressure
1014 hPa
Previous

3 hours ago

CYRT 191600Z 33011KT 10SM IC FEW250 M37/M41 A2991 RMK CI1 SLP138
Observed
Feb-19 @ 16:00 UTC
Wind
  • 330° at 11 KTS
Visibility
10 SM
Flight Rules
VFR
Conditions
Ice crystals
Cloud Levels
  • Few at 25,000' AGL
Temperature
-37°C / -35°F
Dewpoint
-41°C / -42°F
Humidity
66%
Altimeter
29.91" Hg
Pressure
1013.8 hPa